createdAt,value
2022-12-15T00:01:49.828Z,-4.39
2022-12-15T00:04:34.712Z,-4.43
2022-12-15T00:07:19.600Z,-4.52
2022-12-15T00:10:04.480Z,-4.50
2022-12-15T00:12:49.398Z,-4.41
2022-12-15T00:15:34.612Z,-4.29
2022-12-15T00:18:24.071Z,-4.46
2022-12-15T00:21:09.196Z,-4.42
2022-12-15T00:23:54.953Z,-4.53
2022-12-15T00:26:39.902Z,-4.64
2022-12-15T00:29:25.324Z,-4.66
2022-12-15T00:32:10.191Z,-4.65
2022-12-15T00:34:55.224Z,-4.62
2022-12-15T00:37:39.966Z,-4.57
2022-12-15T00:40:07.374Z,-4.55
2022-12-15T00:42:34.022Z,-4.72
2022-12-15T00:45:01.127Z,-4.74
2022-12-15T00:47:27.540Z,-4.88
2022-12-15T00:50:12.513Z,-4.86
2022-12-15T00:52:57.292Z,-4.88
2022-12-15T00:55:42.032Z,-4.92
2022-12-15T00:58:26.804Z,-4.88
2022-12-15T01:01:11.776Z,-4.90
2022-12-15T01:03:56.801Z,-4.91
2022-12-15T01:06:42.104Z,-4.89
2022-12-15T01:09:29.239Z,-4.82
2022-12-15T01:12:14.113Z,-4.74
2022-12-15T01:14:59.259Z,-4.73
2022-12-15T01:17:44.289Z,-4.93
2022-12-15T01:20:32.695Z,-4.99
2022-12-15T01:22:59.133Z,-4.93
2022-12-15T01:25:26.054Z,-4.92
2022-12-15T01:27:52.883Z,-5.00
2022-12-15T01:30:24.056Z,-4.93
2022-12-15T01:32:51.061Z,-4.91
2022-12-15T01:35:17.907Z,-5.05
2022-12-15T01:37:44.786Z,-5.09
2022-12-15T01:40:35.393Z,-5.03
2022-12-15T01:43:01.870Z,-5.05
2022-12-15T01:45:31.331Z,-5.02
2022-12-15T01:48:06.137Z,-4.94
2022-12-15T01:50:37.945Z,-5.02
2022-12-15T01:53:04.494Z,-5.04
2022-12-15T01:55:32.238Z,-4.94
2022-12-15T01:58:06.792Z,-4.96
2022-12-15T02:00:34.295Z,-4.92
2022-12-15T02:03:02.129Z,-4.88
2022-12-15T02:05:31.724Z,-4.90
2022-12-15T02:08:00.436Z,-4.96
2022-12-15T02:10:37.480Z,-4.99
2022-12-15T02:13:09.792Z,-4.90
2022-12-15T02:15:42.232Z,-4.84
2022-12-15T02:18:51.322Z,-4.97
2022-12-15T02:21:35.265Z,-4.99
2022-12-15T02:24:49.682Z,-5.01
2022-12-15T02:27:16.319Z,-5.00
2022-12-15T02:30:13.644Z,-5.00
2022-12-15T02:32:50.118Z,-4.99
2022-12-15T02:35:55.175Z,-5.02
2022-12-15T02:38:34.478Z,-5.03
2022-12-15T02:41:02.963Z,-5.06
2022-12-15T02:43:33.521Z,-5.09
2022-12-15T02:46:15.419Z,-5.06
2022-12-15T02:48:48.754Z,-4.95
2022-12-15T02:51:27.645Z,-5.05
2022-12-15T02:54:03.944Z,-5.19
2022-12-15T02:57:12.096Z,-5.12
2022-12-15T02:59:55.473Z,-5.16
2022-12-15T03:02:26.503Z,-5.35
2022-12-15T03:04:53.903Z,-5.29
2022-12-15T03:07:23.408Z,-5.17
2022-12-15T03:09:49.896Z,-5.11
2022-12-15T03:12:16.446Z,-5.04
2022-12-15T03:14:42.871Z,-4.95
2022-12-15T03:17:09.430Z,-5.02
2022-12-15T03:19:36.058Z,-4.99
2022-12-15T03:22:02.633Z,-4.95
2022-12-15T03:24:29.047Z,-4.99
2022-12-15T03:26:55.854Z,-5.13
2022-12-15T03:29:22.302Z,-5.18
2022-12-15T03:31:49.919Z,-5.13
2022-12-15T03:34:17.057Z,-5.03
2022-12-15T03:36:43.823Z,-5.09
2022-12-15T03:39:10.281Z,-5.14
2022-12-15T03:41:36.669Z,-5.05
2022-12-15T03:44:03.328Z,-5.18
2022-12-15T03:46:29.888Z,-5.22
2022-12-15T03:48:56.404Z,-5.24
2022-12-15T03:51:22.811Z,-5.21
2022-12-15T03:53:49.273Z,-5.27
2022-12-15T03:56:16.830Z,-5.25
2022-12-15T03:58:43.360Z,-5.30
2022-12-15T04:01:11.333Z,-5.27
2022-12-15T04:03:37.951Z,-5.34
2022-12-15T04:06:04.756Z,-5.29
2022-12-15T04:08:31.228Z,-5.49
2022-12-15T04:11:00.006Z,-5.47
2022-12-15T04:13:26.383Z,-5.48
2022-12-15T04:15:52.861Z,-5.42
2022-12-15T04:18:20.263Z,-5.42
2022-12-15T04:20:46.782Z,-5.39
2022-12-15T04:23:16.656Z,-5.42
2022-12-15T04:26:01.672Z,-5.54
2022-12-15T04:28:46.651Z,-5.58
2022-12-15T04:31:51.366Z,-5.53
2022-12-15T04:34:42.393Z,-5.83
2022-12-15T04:37:30.477Z,-5.66
2022-12-15T04:40:16.014Z,-5.64
2022-12-15T04:43:04.406Z,-5.57
2022-12-15T04:45:49.392Z,-5.53
2022-12-15T04:48:34.695Z,-5.52
2022-12-15T04:51:20.046Z,-5.64
2022-12-15T04:54:05.260Z,-5.62
2022-12-15T04:56:50.289Z,-5.63
2022-12-15T04:59:35.969Z,-5.51
2022-12-15T05:02:21.257Z,-5.56
2022-12-15T05:05:06.259Z,-5.60
2022-12-15T05:07:51.295Z,-5.72
2022-12-15T05:10:36.061Z,-5.73
2022-12-15T05:13:27.741Z,-5.70
2022-12-15T05:16:12.891Z,-5.74
2022-12-15T05:18:58.070Z,-5.76
2022-12-15T05:21:42.839Z,-5.83
2022-12-15T05:24:27.707Z,-5.87
2022-12-15T05:27:12.566Z,-5.92
2022-12-15T05:29:57.386Z,-6.03
2022-12-15T05:32:23.903Z,-5.97
2022-12-15T05:34:50.320Z,-5.94
2022-12-15T05:37:16.674Z,-5.93
2022-12-15T05:39:43.212Z,-5.83
2022-12-15T05:42:09.644Z,-5.90
2022-12-15T05:44:36.088Z,-5.91
2022-12-15T05:47:02.706Z,-5.98
2022-12-15T05:49:29.080Z,-5.99
2022-12-15T05:51:57.355Z,-6.00
2022-12-15T05:54:23.809Z,-6.11
2022-12-15T05:56:50.687Z,-6.15
2022-12-15T05:59:17.734Z,-6.14
2022-12-15T06:01:44.325Z,-6.22
2022-12-15T06:04:14.752Z,-6.08
2022-12-15T06:06:41.963Z,-5.93
2022-12-15T06:09:08.774Z,-5.79
2022-12-15T06:11:35.264Z,-5.86
2022-12-15T06:14:02.603Z,-5.86
2022-12-15T06:16:29.257Z,-5.82
2022-12-15T06:19:00.687Z,-5.79
2022-12-15T06:21:29.848Z,-5.60
2022-12-15T06:23:57.140Z,-5.40
2022-12-15T06:26:28.176Z,-5.25
2022-12-15T06:28:56.902Z,-5.29
2022-12-15T06:31:25.430Z,-5.39
2022-12-15T06:33:57.661Z,-5.41
2022-12-15T06:36:26.346Z,-5.30
2022-12-15T06:38:52.818Z,-5.40
2022-12-15T06:41:21.341Z,-5.36
2022-12-15T06:43:52.478Z,-5.40
2022-12-15T06:46:19.280Z,-5.35
2022-12-15T06:48:46.654Z,-5.34
2022-12-15T06:51:17.443Z,-5.28
2022-12-15T06:53:54.288Z,-5.18
2022-12-15T06:56:32.473Z,-5.17
2022-12-15T06:59:01.068Z,-5.14
2022-12-15T07:01:27.920Z,-5.12
2022-12-15T07:03:55.307Z,-5.06
2022-12-15T07:06:22.599Z,-4.90
2022-12-15T07:08:52.421Z,-4.88
2022-12-15T07:11:20.901Z,-4.78
2022-12-15T07:13:52.101Z,-4.68
2022-12-15T07:16:18.720Z,-4.70
2022-12-15T07:18:45.303Z,-4.64
2022-12-15T07:21:12.150Z,-4.58
2022-12-15T07:23:56.347Z,-4.50
2022-12-15T07:26:24.353Z,-4.32
2022-12-15T07:28:51.085Z,-4.28
2022-12-15T07:31:17.771Z,-4.20
2022-12-15T07:33:44.487Z,-4.13
2022-12-15T07:36:11.133Z,-4.14
2022-12-15T07:38:37.514Z,-4.14
2022-12-15T07:41:06.806Z,-4.10
2022-12-15T07:43:33.847Z,-4.07
2022-12-15T07:46:00.778Z,-3.96
2022-12-15T07:48:27.754Z,-3.93
2022-12-15T07:51:02.781Z,-3.92
2022-12-15T07:53:33.896Z,-3.80
2022-12-15T07:56:09.637Z,-3.70
2022-12-15T07:58:37.992Z,-3.64
2022-12-15T08:01:07.284Z,-3.60
2022-12-15T08:03:34.834Z,-3.61
2022-12-15T08:06:10.395Z,-3.27
2022-12-15T08:08:37.135Z,-3.37
2022-12-15T08:11:13.437Z,-3.37
2022-12-15T08:16:28.148Z,-3.58
2022-12-15T08:18:57.022Z,-3.52
2022-12-15T08:21:23.562Z,-3.53
2022-12-15T08:23:50.593Z,-3.54
2022-12-15T08:26:18.687Z,-3.61
2022-12-15T08:28:45.768Z,-3.53
2022-12-15T08:31:16.638Z,-3.51
2022-12-15T08:33:43.757Z,-3.34
2022-12-15T08:36:12.882Z,-3.35
2022-12-15T08:38:40.979Z,-3.41
2022-12-15T08:41:13.178Z,-3.49
2022-12-15T08:43:47.703Z,-3.55
2022-12-15T08:46:20.913Z,-3.48
2022-12-15T08:48:48.088Z,-3.37
2022-12-15T08:51:15.006Z,-3.50
2022-12-15T08:53:42.298Z,-3.64
2022-12-15T08:56:12.160Z,-3.61
2022-12-15T08:58:39.584Z,-3.43
2022-12-15T09:01:17.319Z,-3.39
2022-12-15T09:03:47.277Z,-3.43
2022-12-15T09:06:23.548Z,-3.44
2022-12-15T09:08:50.493Z,-3.56
2022-12-15T09:11:17.591Z,-3.43
2022-12-15T09:13:44.377Z,-3.30
2022-12-15T09:16:14.563Z,-3.22
2022-12-15T09:18:46.588Z,-3.07
2022-12-15T09:21:14.470Z,-3.12
2022-12-15T09:23:41.460Z,-3.06
2022-12-15T09:26:14.274Z,-3.10
2022-12-15T09:28:42.858Z,-3.00
2022-12-15T09:31:20.705Z,-2.93
2022-12-15T09:33:47.548Z,-2.84
2022-12-15T09:36:14.456Z,-2.79
2022-12-15T09:38:42.759Z,-2.82
2022-12-15T09:41:15.408Z,-2.70
2022-12-15T09:44:03.064Z,-2.63
2022-12-15T09:46:51.269Z,-2.62
2022-12-15T09:49:29.891Z,-2.50
2022-12-15T09:52:08.879Z,-2.67
2022-12-15T09:54:37.778Z,-2.76
2022-12-15T09:57:24.180Z,-2.77
2022-12-15T10:00:05.270Z,-2.67
2022-12-15T10:02:40.809Z,-2.68
2022-12-15T10:05:57.295Z,-2.72
2022-12-15T10:08:22.070Z,-2.74
2022-12-15T10:10:58.540Z,-2.69
2022-12-15T10:13:37.575Z,-2.63
2022-12-15T10:16:14.236Z,-2.58
2022-12-15T10:19:01.884Z,-2.60
2022-12-15T10:21:31.616Z,-2.69
2022-12-15T10:24:44.364Z,-2.72
2022-12-15T10:27:43.879Z,-2.73
2022-12-15T10:30:14.009Z,-2.74
2022-12-15T10:33:02.844Z,-2.74
2022-12-15T10:35:32.984Z,-2.74
2022-12-15T10:38:23.251Z,-2.62
2022-12-15T10:40:53.469Z,-2.61
2022-12-15T10:43:38.186Z,-2.55
2022-12-15T10:46:18.407Z,-2.53
2022-12-15T10:49:10.911Z,-2.63
2022-12-15T10:51:43.595Z,-2.65
2022-12-15T10:54:09.973Z,-2.61
2022-12-15T10:56:47.524Z,-2.35
2022-12-15T10:59:38.091Z,-2.26
2022-12-15T11:02:29.459Z,-2.25
2022-12-15T11:05:04.872Z,-2.17
2022-12-15T11:07:41.445Z,-1.98
2022-12-15T11:10:26.292Z,-1.86
2022-12-15T11:13:15.671Z,-1.54
2022-12-15T11:15:53.358Z,-1.48
2022-12-15T11:18:41.073Z,-1.41
2022-12-15T11:21:12.864Z,-1.44
2022-12-15T11:23:50.544Z,-1.34
2022-12-15T11:26:51.160Z,-1.23
2022-12-15T11:29:27.158Z,-1.17
2022-12-15T11:31:56.518Z,-1.51
2022-12-15T11:34:32.154Z,-1.62
2022-12-15T11:37:16.924Z,-1.66
2022-12-15T11:39:57.292Z,-1.85
2022-12-15T11:42:42.083Z,-2.05
2022-12-15T11:45:37.902Z,-2.12
2022-12-15T11:48:20.867Z,-2.11
2022-12-15T11:51:02.463Z,-2.13
2022-12-15T11:53:47.762Z,-2.07
2022-12-15T11:56:24.912Z,-2.12
2022-12-15T11:59:06.677Z,-2.04
2022-12-15T12:05:12.694Z,-2.01
2022-12-15T12:07:49.161Z,-2.06
2022-12-15T12:10:30.856Z,-2.07
2022-12-15T12:13:26.432Z,-2.10
2022-12-15T12:16:17.891Z,-2.27
2022-12-15T12:19:02.791Z,-2.14
2022-12-15T12:21:40.865Z,-2.05
2022-12-15T12:24:36.395Z,-1.90
2022-12-15T12:27:26.174Z,-1.75
2022-12-15T12:30:00.371Z,-1.84
2022-12-15T12:32:50.432Z,-1.81
2022-12-15T12:35:32.324Z,-1.63
2022-12-15T12:38:03.858Z,-1.55
2022-12-15T12:40:40.075Z,-1.62
2022-12-15T12:43:15.150Z,-1.71
2022-12-15T12:46:06.944Z,-1.62
2022-12-15T12:48:38.536Z,-1.54
2022-12-15T12:51:24.548Z,-1.43
2022-12-15T12:53:51.710Z,-1.29
2022-12-15T12:56:40.489Z,-1.22
2022-12-15T12:59:28.813Z,-1.05
2022-12-15T13:01:57.075Z,-0.94
2022-12-15T13:04:29.624Z,-0.76
2022-12-15T13:06:55.954Z,-0.77
2022-12-15T13:09:25.426Z,-0.80
2022-12-15T13:11:51.896Z,-0.66
2022-12-15T13:14:31.419Z,-0.72
2022-12-15T13:17:28.519Z,-0.73
2022-12-15T13:19:58.098Z,-0.66
2022-12-15T13:22:31.563Z,-0.54
2022-12-15T13:24:58.334Z,-0.70
2022-12-15T13:27:36.248Z,-0.80
2022-12-15T13:30:05.682Z,-0.78
2022-12-15T13:32:44.670Z,-0.79
2022-12-15T13:35:11.827Z,-0.76
2022-12-15T13:37:48.989Z,-0.68
2022-12-15T13:40:37.255Z,-0.51
2022-12-15T13:43:03.610Z,-0.60
2022-12-15T13:45:55.901Z,-0.66
2022-12-15T13:48:34.055Z,-0.58
2022-12-15T13:51:25.722Z,-0.45
2022-12-15T13:54:16.229Z,-0.48
2022-12-15T13:57:01.351Z,-0.33
2022-12-15T13:59:40.153Z,-0.12
2022-12-15T14:02:25.450Z,0.03
2022-12-15T14:05:19.972Z,0.27
2022-12-15T14:07:58.685Z,0.42
2022-12-15T14:10:41.843Z,0.89
2022-12-15T14:13:16.117Z,1.16
2022-12-15T14:15:47.177Z,1.17
2022-12-15T14:18:39.094Z,0.92
2022-12-15T14:21:07.447Z,0.64
2022-12-15T14:24:03.935Z,0.37
2022-12-15T14:26:31.760Z,0.24
2022-12-15T14:29:03.844Z,0.19
2022-12-15T14:31:31.063Z,0.10
2022-12-15T14:34:07.915Z,-0.14
2022-12-15T14:36:35.808Z,-0.27
2022-12-15T14:39:06.506Z,-0.35
2022-12-15T14:41:40.892Z,-0.47
2022-12-15T14:44:36.960Z,-0.62
2022-12-15T14:47:08.366Z,-0.68
2022-12-15T14:49:45.132Z,-0.77
2022-12-15T14:52:30.355Z,-0.73
2022-12-15T14:55:00.029Z,-0.80
2022-12-15T14:57:43.483Z,-0.86
2022-12-15T15:00:25.716Z,-0.90
2022-12-15T15:03:12.648Z,-2.01
2022-12-15T15:06:02.154Z,-0.94
2022-12-15T15:08:32.545Z,-1.04
2022-12-15T15:11:04.488Z,-1.14
2022-12-15T15:13:40.089Z,-1.09
2022-12-15T15:16:13.732Z,-1.17
2022-12-15T15:18:42.736Z,-1.20
2022-12-15T15:21:17.000Z,-1.20
2022-12-15T15:23:58.361Z,-1.25
2022-12-15T15:26:26.087Z,-1.29
2022-12-15T15:28:52.542Z,-1.34
2022-12-15T15:31:41.548Z,-1.38
2022-12-15T15:34:09.812Z,-1.35
2022-12-15T15:36:39.484Z,-1.42
2022-12-15T15:39:15.907Z,-1.51
2022-12-15T15:41:42.628Z,-1.56
2022-12-15T15:44:13.696Z,-1.68
2022-12-15T15:46:58.215Z,-1.73
2022-12-15T15:49:24.692Z,-1.75
2022-12-15T15:51:51.158Z,-1.71
2022-12-15T15:54:22.852Z,-1.74
2022-12-15T15:56:49.303Z,-1.78
2022-12-15T15:59:18.522Z,-1.87
2022-12-15T16:01:48.653Z,-1.85
2022-12-15T16:04:15.353Z,-1.84
2022-12-15T16:06:46.990Z,-1.83
2022-12-15T16:09:15.013Z,-1.83
2022-12-15T16:11:41.485Z,-1.85
2022-12-15T16:14:12.896Z,-1.94
2022-12-15T16:16:39.324Z,-1.91
2022-12-15T16:19:05.894Z,-1.89
2022-12-15T16:21:32.646Z,-1.92
2022-12-15T16:24:07.666Z,-1.88
2022-12-15T16:26:37.173Z,-2.01
2022-12-15T16:29:14.107Z,-2.05
2022-12-15T16:31:45.313Z,-2.10
2022-12-15T16:34:12.877Z,-2.10
2022-12-15T16:36:40.815Z,-2.14
2022-12-15T16:39:36.634Z,-2.24
2022-12-15T16:42:04.152Z,-2.22
2022-12-15T16:44:30.847Z,-2.25
2022-12-15T16:46:57.744Z,-2.28
2022-12-15T16:49:24.792Z,-2.29
2022-12-15T16:51:53.354Z,-2.24
2022-12-15T16:54:25.391Z,-2.33
2022-12-15T16:56:53.684Z,-2.42
2022-12-15T16:59:33.132Z,-2.54
2022-12-15T17:02:01.079Z,-2.58
2022-12-15T17:04:27.639Z,-2.65
2022-12-15T17:06:54.257Z,-2.65
2022-12-15T17:09:25.531Z,-2.71
2022-12-15T17:11:52.094Z,-2.70
2022-12-15T17:14:18.498Z,-2.73
2022-12-15T17:16:46.147Z,-2.74
2022-12-15T17:19:17.549Z,-2.81
2022-12-15T17:21:53.391Z,-2.79
2022-12-15T17:24:21.685Z,-2.84
2022-12-15T17:26:49.196Z,-2.88
2022-12-15T17:29:20.206Z,-2.86
2022-12-15T17:31:47.000Z,-2.91
2022-12-15T17:34:33.431Z,-2.94
2022-12-15T17:37:02.592Z,-3.04
2022-12-15T17:39:29.987Z,-3.01
2022-12-15T17:42:01.523Z,-3.03
2022-12-15T17:44:34.487Z,-3.04
2022-12-15T17:47:02.263Z,-3.00
2022-12-15T17:49:35.138Z,-2.96
2022-12-15T17:52:05.296Z,-3.09
2022-12-15T17:54:31.827Z,-3.14
2022-12-15T17:56:58.589Z,-3.17
2022-12-15T17:59:25.094Z,-3.19
2022-12-15T18:01:52.029Z,-3.26
2022-12-15T18:04:18.525Z,-3.21
2022-12-15T18:06:45.226Z,-3.31
2022-12-15T18:09:19.903Z,-3.44
2022-12-15T18:11:46.997Z,-3.64
2022-12-15T18:14:19.564Z,-3.66
2022-12-15T18:16:46.462Z,-3.64
2022-12-15T18:19:13.329Z,-3.64
2022-12-15T18:21:40.026Z,-3.65
2022-12-15T18:24:14.004Z,-3.60
2022-12-15T18:26:40.488Z,-3.53
2022-12-15T18:29:17.443Z,-3.53
2022-12-15T18:31:46.511Z,-3.63
2022-12-15T18:34:15.763Z,-3.67
2022-12-15T18:36:42.955Z,-3.76
2022-12-15T18:39:30.145Z,-3.78
2022-12-15T18:41:57.382Z,-3.68
2022-12-15T18:44:30.860Z,-3.82
2022-12-15T18:46:57.725Z,-3.91
2022-12-15T18:49:24.442Z,-3.89
2022-12-15T18:51:51.327Z,-3.91
2022-12-15T18:54:21.181Z,-3.91
2022-12-15T18:56:47.738Z,-3.97
2022-12-15T18:59:15.904Z,-4.12
2022-12-15T19:01:46.111Z,-4.18
2022-12-15T19:04:13.138Z,-4.22
2022-12-15T19:06:40.887Z,-4.21
2022-12-15T19:09:27.685Z,-4.18
2022-12-15T19:12:12.901Z,-4.19
2022-12-15T19:14:42.775Z,-4.14
2022-12-15T19:17:36.744Z,-4.07
2022-12-15T19:20:33.186Z,-4.23
2022-12-15T19:22:59.961Z,-4.26
2022-12-15T19:25:28.570Z,-4.29
2022-12-15T19:27:59.302Z,-4.34
2022-12-15T19:30:29.362Z,-4.31
2022-12-15T19:32:55.776Z,-4.49
2022-12-15T19:35:22.475Z,-4.43
2022-12-15T19:37:50.088Z,-4.41
2022-12-15T19:40:22.609Z,-4.45
2022-12-15T19:42:49.669Z,-4.42
2022-12-15T19:45:22.503Z,-4.40
2022-12-15T19:47:49.068Z,-4.49
2022-12-15T19:50:22.515Z,-4.47
2022-12-15T19:52:52.365Z,-4.50
2022-12-15T19:55:25.823Z,-4.52
2022-12-15T19:57:52.511Z,-4.61
2022-12-15T20:00:22.021Z,-4.63
2022-12-15T20:02:51.453Z,-4.59
2022-12-15T20:05:19.738Z,-4.63
2022-12-15T20:07:47.130Z,-4.65
2022-12-15T20:10:31.944Z,-4.76
2022-12-15T20:13:00.138Z,-4.79
2022-12-15T20:15:26.619Z,-4.83
2022-12-15T20:17:57.010Z,-4.77
2022-12-15T20:20:25.888Z,-4.83
2022-12-15T20:22:55.193Z,-4.92
2022-12-15T20:25:40.657Z,-4.94
2022-12-15T20:28:15.374Z,-4.99
2022-12-15T20:30:42.009Z,-4.99
2022-12-15T20:33:08.509Z,-4.82
2022-12-15T20:35:36.595Z,-4.98
2022-12-15T20:38:17.228Z,-5.01
2022-12-15T20:40:43.805Z,-5.00
2022-12-15T20:43:18.207Z,-4.93
2022-12-15T20:45:47.393Z,-5.07
2022-12-15T20:48:15.084Z,-5.07
2022-12-15T20:50:44.649Z,-5.00
2022-12-15T20:53:22.980Z,-5.02
2022-12-15T20:55:50.766Z,-5.09
2022-12-15T20:58:17.728Z,-5.11
2022-12-15T21:00:45.380Z,-5.22
2022-12-15T21:03:19.737Z,-5.20
2022-12-15T21:05:47.539Z,-5.26
2022-12-15T21:08:25.973Z,-5.19
2022-12-15T21:10:54.225Z,-5.13
2022-12-15T21:13:27.352Z,-5.10
2022-12-15T21:15:54.293Z,-5.03
2022-12-15T21:19:11.025Z,-5.24
2022-12-15T21:21:16.858Z,-5.32
2022-12-15T21:23:43.396Z,-5.40
2022-12-15T21:26:10.720Z,-5.49
2022-12-15T21:28:37.080Z,-5.54
2022-12-15T21:31:03.720Z,-5.51
2022-12-15T21:33:30.225Z,-5.46
2022-12-15T21:35:56.663Z,-5.44
2022-12-15T21:38:31.312Z,-5.55
2022-12-15T21:41:00.380Z,-5.59
2022-12-15T21:43:29.528Z,-5.58
2022-12-15T21:45:56.286Z,-5.59
2022-12-15T21:48:41.283Z,-5.65
2022-12-15T21:51:13.426Z,-5.65
2022-12-15T21:53:40.132Z,-5.65
2022-12-15T21:56:06.911Z,-5.71
2022-12-15T21:58:35.095Z,-5.62
2022-12-15T22:01:01.854Z,-5.67
2022-12-15T22:03:28.419Z,-5.73
2022-12-15T22:05:54.765Z,-5.76
2022-12-15T22:08:22.144Z,-5.79
2022-12-15T22:10:50.856Z,-5.84
2022-12-15T22:13:20.916Z,-5.78
2022-12-15T22:15:50.620Z,-5.81
2022-12-15T22:18:22.404Z,-5.98
2022-12-15T22:20:50.224Z,-5.96
2022-12-15T22:23:18.693Z,-6.00
2022-12-15T22:25:47.404Z,-6.04
2022-12-15T22:28:33.094Z,-6.09
2022-12-15T22:31:02.291Z,-6.12
2022-12-15T22:33:28.708Z,-6.18
2022-12-15T22:35:56.333Z,-6.24
2022-12-15T22:38:23.421Z,-6.30
2022-12-15T22:40:55.884Z,-6.18
2022-12-15T22:43:41.565Z,-6.19
2022-12-15T22:46:12.497Z,-6.35
2022-12-15T22:48:41.755Z,-6.48
2022-12-15T22:51:12.971Z,-6.40
2022-12-15T22:53:39.499Z,-6.21
2022-12-15T22:56:20.133Z,-6.23
2022-12-15T22:58:48.165Z,-6.33
2022-12-15T23:01:14.587Z,-6.32
2022-12-15T23:03:41.064Z,-6.21
2022-12-15T23:06:07.595Z,-6.15
2022-12-15T23:08:33.986Z,-6.13
2022-12-15T23:11:19.109Z,-6.02
2022-12-15T23:13:45.552Z,-6.13
2022-12-15T23:16:21.657Z,-6.23
2022-12-15T23:18:53.432Z,-6.11
2022-12-15T23:21:23.149Z,-6.28
2022-12-15T23:23:49.648Z,-6.38
2022-12-15T23:26:18.460Z,-6.20
2022-12-15T23:28:45.776Z,-6.21
2022-12-15T23:31:12.552Z,-6.21
2022-12-15T23:33:39.058Z,-6.09
2022-12-15T23:36:06.209Z,-6.03
2022-12-15T23:38:32.715Z,-6.17
2022-12-15T23:40:59.197Z,-6.26
2022-12-15T23:43:27.362Z,-6.29
2022-12-15T23:46:06.398Z,-6.31
2022-12-15T23:48:38.603Z,-6.35
2022-12-15T23:51:14.781Z,-6.42
2022-12-15T23:53:42.185Z,-6.35
2022-12-15T23:56:14.599Z,-6.38
2022-12-15T23:58:43.074Z,-6.44
